Terminal Aerodrome Forecast
Issued by NWS Mobile, AL

Home | Current Version | Previous Version | Text Only | Print | Product List | Glossary On
Versions: 1 2 3 4 5 6 7 8 9 10 11 12 13 14 15 16 17 18 19 20 21 22 23 24 25 26 27 28 29 30 31 32 33 34
000
FTUS44 KMOB 232320
TAFPNS
TAF
KPNS 232320Z 2400/2424 18011KT P6SM VCSH BKN012 BKN025
      TEMPO 2406/2410 VRB20KT 2SM TSRA BKN015CB
     FM241000 19004KT P6SM BKN007 OVC015
     FM241500 24006KT P6SM VCTS BKN025CB=

USA.gov is the U.S. government's official web portal to all federal, state and local government web resources and services.